This is the latest recevied weather packets stored in our database for station/object SQ3VAS-10. If no packets are shown the sender has not sent any weather packets the latest 10 day(s).
| Time | Temp. | Humidity | Pressure | Rain* | Wind** | Luminosity | Snow |
|---|---|---|---|---|---|---|---|
| 1778236807 | 18.89° C | 49% | 1021.2 hPa | - | - | - | - |
| 1778236232 | 17.78° C | 53% | 1021.2 hPa | - | - | - | - |
| 1778235660 | 16.11° C | 55% | 1021.4 hPa | - | - | - | - |
| 1778235088 | 16.67° C | 54% | 1021.3 hPa | - | - | - | - |
| 1778234515 | 16.67° C | 55% | 1021.3 hPa | - | - | - | - |
| 1778233943 | 17.22° C | 52% | 1021.2 hPa | - | - | - | - |
| 1778233370 | 16.67° C | 55% | 1021.3 hPa | - | - | - | - |
| 1778232798 | 16.67° C | 54% | 1021.3 hPa | - | - | - | - |
| 1778232226 | 17.22° C | 53% | 1021.3 hPa | - | - | - | - |
| 1778231654 | 17.78° C | 53% | 1021.3 hPa | - | - | - | - |
| 1778231082 | 17.22° C | 53% | 1021.3 hPa | - | - | - | - |
| 1778230509 | 17.22° C | 53% | 1021.3 hPa | - | - | - | - |
| 1778229937 | 17.22° C | 52% | 1021.3 hPa | - | - | - | - |
| 1778229364 | 17.22° C | 53% | 1021.2 hPa | - | - | - | - |
| 1778228791 | 16.67° C | 54% | 1021.2 hPa | - | - | - | - |
| 1778228218 | 16.67° C | 55% | 1021.2 hPa | - | - | - | - |
| 1778227644 | 15.56° C | 56% | 1021.2 hPa | - | - | - | - |
| 1778226498 | 14.44° C | 58% | 1021.3 hPa | - | - | - | - |
| 1778225924 | 13.89° C | 60% | 1021.4 hPa | - | - | - | - |
| 1778225352 | 13.89° C | 60% | 1021.3 hPa | - | - | - | - |
| 1778224778 | 13.33° C | 62% | 1021.2 hPa | - | - | - | - |
| 1778224206 | 12.22° C | 63% | 1021.4 hPa | - | - | - | - |
| 1778223633 | 12.22° C | 64% | 1021.3 hPa | - | - | - | - |
| 1778223060 | 11.67° C | 66% | 1021.2 hPa | - | - | - | - |
| 1778222488 | 11.67° C | 66% | 1021.1 hPa | - | - | - | - |
* Rain since midnight (hover to see other rain measurements)
** Current wind speed in m/s (hover to see current wind gust speed)